Time;durP1;ratioP1;P1;durP2;ratioP2;P2;SDS_P1;SDS_P2;PMS_P1;PMS_P2;Temp;Humidity;BMP_temperature;BMP_pressure;BME280_temperature;BME280_humidity;BME280_pressure;Samples;Min_cycle;Max_cycle;Signal;HPM_P1;HPM_P2
2022/01/07 00:00:04;;;;;;;;;;;5.60;99.90;;;;;;4969072;28;20055;-73
2022/01/07 00:02:38;;;;;;;20.50;2.97;;;5.50;99.90;;;;;;4968658;28;19964;-73
2022/01/07 00:05:08;;;;;;;26.42;3.42;;;5.50;99.90;;;;;;4983273;28;20683;-73
2022/01/07 00:07:36;;;;;;;23.77;2.95;;;5.40;99.90;;;;;;4983496;28;20050;-73
2022/01/07 00:10:06;;;;;;;25.52;2.97;;;5.40;99.90;;;;;;4987799;28;20053;-73
2022/01/07 00:12:33;;;;;;;27.40;2.95;;;5.40;99.90;;;;;;4987786;28;20482;-73
2022/01/07 00:15:03;;;;;;;20.63;3.05;;;5.40;99.90;;;;;;4986672;28;20054;-73
2022/01/07 00:17:30;;;;;;;37.15;3.90;;;5.40;99.90;;;;;;4987486;28;20050;-73
2022/01/07 00:19:58;;;;;;;16.50;2.13;;;5.50;99.90;;;;;;4986218;28;20491;-74
2022/01/07 00:22:26;;;;;;;15.25;2.30;;;5.50;99.90;;;;;;4987532;28;20554;-73
2022/01/07 00:24:54;;;;;;;10.88;1.90;;;5.50;99.90;;;;;;4987729;28;20046;-73
2022/01/07 00:27:21;;;;;;;12.45;1.75;;;5.50;99.90;;;;;;4969786;28;20084;-74
2022/01/07 00:29:51;;;;;;;15.25;1.90;;;5.50;99.90;;;;;;4987338;28;20053;-73
2022/01/07 00:32:19;;;;;;;13.20;1.30;;;5.50;99.90;;;;;;4985675;28;20050;-73
2022/01/07 00:34:47;;;;;;;9.07;1.02;;;5.40;99.90;;;;;;4986144;28;20061;-73
2022/01/07 00:37:15;;;;;;;7.78;1.27;;;5.40;99.90;;;;;;4987808;28;20396;-74
2022/01/07 00:39:42;;;;;;;7.05;1.00;;;5.30;99.90;;;;;;4985960;28;20503;-75
2022/01/07 00:42:10;;;;;;;5.40;0.73;;;5.30;99.90;;;;;;4970355;28;20043;-73
2022/01/07 00:44:38;;;;;;;5.35;0.82;;;5.20;99.90;;;;;;4985913;28;20050;-73
2022/01/07 00:47:06;;;;;;;5.15;0.98;;;5.10;99.90;;;;;;4985883;28;20047;-73
2022/01/07 00:49:34;;;;;;;4.80;0.73;;;5.00;99.90;;;;;;4987044;28;20057;-73
2022/01/07 00:52:03;;;;;;;8.57;0.90;;;4.90;99.90;;;;;;4986174;28;20061;-73
2022/01/07 00:54:31;;;;;;;6.50;0.80;;;4.80;99.90;;;;;;4985754;28;20050;-73
2022/01/07 00:56:58;;;;;;;5.30;0.75;;;4.70;99.90;;;;;;4987016;28;20690;-73
2022/01/07 00:59:26;;;;;;;6.90;0.80;;;4.70;99.90;;;;;;4980760;28;20484;-74
2022/01/07 01:01:54;;;;;;;5.88;0.68;;;4.60;99.90;;;;;;4965794;28;20055;-73
2022/01/07 01:04:45;;;;;;;10.00;0.88;;;4.50;99.90;;;;;;4967557;28;20301;-73
2022/01/07 01:07:13;;;;;;;7.00;0.82;;;4.40;99.90;;;;;;4965922;28;20054;-73
2022/01/07 01:09:42;;;;;;;9.40;1.00;;;4.40;99.90;;;;;;4966109;28;20047;-73
2022/01/07 01:12:11;;;;;;;10.48;0.70;;;4.30;99.90;;;;;;4966764;28;20061;-73
2022/01/07 01:14:39;;;;;;;7.53;0.75;;;4.20;99.90;;;;;;4949882;28;20058;-73
2022/01/07 01:17:08;;;;;;;6.05;0.70;;;4.30;99.90;;;;;;4949806;28;20456;-73
2022/01/07 01:19:36;;;;;;;6.13;0.93;;;4.20;99.90;;;;;;4966006;28;20046;-73
2022/01/07 01:22:05;;;;;;;8.82;1.27;;;4.20;99.90;;;;;;4949767;28;20047;-73
2022/01/07 01:24:33;;;;;;;11.38;1.40;;;4.20;99.90;;;;;;4969430;28;20091;-73
2022/01/07 01:27:01;;;;;;;13.13;1.50;;;4.20;99.90;;;;;;4986679;28;20557;-73
2022/01/07 01:29:29;;;;;;;8.43;1.13;;;4.30;99.90;;;;;;4969376;28;20057;-73
2022/01/07 01:31:56;;;;;;;17.10;1.83;;;4.20;99.90;;;;;;4986839;28;20057;-73
2022/01/07 01:34:24;;;;;;;17.42;1.83;;;4.20;99.90;;;;;;4986424;28;20585;-73
2022/01/07 01:36:52;;;;;;;17.52;1.80;;;4.30;99.90;;;;;;4985308;28;20066;-73
2022/01/07 01:39:19;;;;;;;10.48;1.50;;;4.30;99.90;;;;;;4977555;28;20066;-73
2022/01/07 01:41:48;;;;;;;13.15;1.70;;;4.30;99.90;;;;;;4981771;28;20054;-73
2022/01/07 01:44:16;;;;;;;19.25;1.90;;;4.30;99.90;;;;;;4965767;28;20062;-73
2022/01/07 01:46:43;;;;;;;15.52;1.90;;;4.30;99.90;;;;;;4965573;28;20051;-73
2022/01/07 01:49:11;;;;;;;22.60;2.47;;;4.40;99.90;;;;;;4985313;28;20064;-73
2022/01/07 01:51:39;;;;;;;10.05;1.70;;;4.40;99.90;;;;;;4984957;28;20061;-73
2022/01/07 01:54:07;;;;;;;11.98;1.60;;;4.40;99.90;;;;;;4986058;28;20483;-73
2022/01/07 01:56:34;;;;;;;18.30;1.90;;;4.40;99.90;;;;;;4986331;28;20058;-74
2022/01/07 01:59:03;;;;;;;16.48;2.38;;;4.40;99.90;;;;;;4984654;28;20058;-73
2022/01/07 02:01:31;;;;;;;18.60;2.20;;;4.40;99.90;;;;;;4984265;28;20403;-73
2022/01/07 02:03:59;;;;;;;15.68;1.77;;;4.40;99.90;;;;;;4986077;28;20069;-73
2022/01/07 02:06:27;;;;;;;19.30;2.05;;;4.40;99.90;;;;;;4984579;28;20055;-73
2022/01/07 02:08:55;;;;;;;16.70;2.13;;;4.30;99.90;;;;;;4985741;28;20055;-73
2022/01/07 02:11:23;;;;;;;16.23;2.38;;;4.30;99.90;;;;;;4989174;28;20054;-73
2022/01/07 02:13:57;;;;;;;14.27;2.00;;;4.30;99.90;;;;;;5004238;28;20045;-73
2022/01/07 02:16:28;;;;;;;16.23;2.10;;;4.30;99.90;;;;;;4988788;28;20058;-73
2022/01/07 02:18:56;;;;;;;13.07;2.00;;;4.30;99.90;;;;;;4989485;28;20051;-73
2022/01/07 02:21:25;;;;;;;18.77;2.50;;;4.30;99.90;;;;;;4989926;28;20075;-73
2022/01/07 02:23:53;;;;;;;16.40;2.15;;;4.30;99.90;;;;;;4988073;28;20060;-73
2022/01/07 02:26:21;;;;;;;25.23;2.83;;;4.30;99.90;;;;;;4989538;28;20046;-73
2022/01/07 02:28:49;;;;;;;18.75;2.20;;;4.30;99.90;;;;;;4988137;28;20058;-72
2022/01/07 02:31:18;;;;;;;18.23;2.17;;;4.30;99.90;;;;;;4989734;28;20545;-73
2022/01/07 02:33:46;;;;;;;19.15;2.22;;;4.30;99.90;;;;;;4988147;28;20050;-73
2022/01/07 02:36:14;;;;;;;27.25;2.53;;;4.30;99.90;;;;;;4989725;28;20042;-73
2022/01/07 02:38:42;;;;;;;14.40;2.17;;;4.30;99.90;;;;;;4988148;28;20050;-72
2022/01/07 02:41:10;;;;;;;14.63;1.90;;;4.40;99.90;;;;;;4989503;28;20730;-72
2022/01/07 02:43:37;;;;;;;15.65;2.00;;;4.40;99.90;;;;;;4989462;28;20058;-72
2022/01/07 02:46:05;;;;;;;12.05;1.70;;;4.40;99.90;;;;;;4988267;28;20043;-72
2022/01/07 02:48:33;;;;;;;22.45;2.25;;;4.40;99.90;;;;;;4989834;28;20058;-72
2022/01/07 02:51:01;;;;;;;19.13;2.35;;;4.50;99.90;;;;;;4990025;28;20054;-72
2022/01/07 02:53:29;;;;;;;18.17;1.95;;;4.50;99.90;;;;;;4988716;28;20073;-72
2022/01/07 02:55:56;;;;;;;23.45;2.33;;;4.50;99.90;;;;;;4988536;28;20042;-73
2022/01/07 02:58:24;;;;;;;24.83;2.80;;;4.50;99.90;;;;;;4988011;28;20054;-72
2022/01/07 03:00:52;;;;;;;24.85;2.70;;;4.50;99.90;;;;;;4989589;28;20050;-72
2022/01/07 03:03:20;;;;;;;;;;;4.50;99.90;;;;;;4988785;28;20538;-73
2022/01/07 03:05:47;;;;;;;23.90;2.13;;;4.50;99.90;;;;;;4985000;28;19937;-73
2022/01/07 03:08:15;;;;;;;18.27;2.65;;;4.50;99.90;;;;;;4989712;28;20375;-73
2022/01/07 03:10:43;;;;;;;21.63;2.47;;;4.50;99.90;;;;;;4989919;28;20507;-72
2022/01/07 03:13:10;;;;;;;24.05;3.03;;;4.50;99.90;;;;;;4988328;28;20050;-73
2022/01/07 03:15:39;;;;;;;22.55;2.72;;;4.50;99.90;;;;;;4988305;28;20059;-73
2022/01/07 03:18:08;;;;;;;19.60;2.75;;;4.50;99.90;;;;;;4989387;28;20057;-73
2022/01/07 03:20:38;;;;;;;24.38;2.65;;;4.40;99.90;;;;;;4989207;28;20046;-73
2022/01/07 03:23:08;;;;;;;24.10;2.40;;;4.50;99.90;;;;;;4983686;28;20043;-73
2022/01/07 03:25:35;;;;;;;15.45;2.13;;;4.50;99.90;;;;;;4969809;28;20047;-74
2022/01/07 03:28:03;;;;;;;22.80;2.03;;;4.40;99.90;;;;;;4977636;28;20054;-73
2022/01/07 03:30:31;;;;;;;20.02;2.20;;;4.40;99.90;;;;;;4989344;28;20061;-74
2022/01/07 03:32:59;;;;;;;15.05;2.00;;;4.40;99.90;;;;;;4989060;28;20046;-73
2022/01/07 03:35:27;;;;;;;17.55;2.40;;;4.40;99.90;;;;;;4987161;28;20503;-73
2022/01/07 03:37:55;;;;;;;19.10;1.90;;;4.40;99.90;;;;;;4986462;28;20057;-72
2022/01/07 03:40:22;;;;;;;18.83;2.08;;;4.40;99.90;;;;;;4988275;28;20046;-74
2022/01/07 03:42:51;;;;;;;13.85;1.83;;;4.40;99.90;;;;;;5007379;28;20065;-74
2022/01/07 03:45:18;;;;;;;;;;;4.50;99.90;;;;;;5008749;28;20061;-73
2022/01/07 03:47:47;;;;;;;23.33;2.13;;;4.40;99.90;;;;;;5008370;28;19921;-73
2022/01/07 03:50:16;;;;;;;16.80;2.10;;;4.40;99.90;;;;;;5008319;28;20046;-74
2022/01/07 03:52:44;;;;;;;19.85;2.42;;;4.40;99.90;;;;;;4998283;28;20050;-74
2022/01/07 03:55:18;;;;;;;18.45;2.22;;;4.40;99.90;;;;;;4988933;28;20057;-74
2022/01/07 03:57:46;;;;;;;18.90;1.98;;;4.30;99.90;;;;;;4987089;28;20491;-74
2022/01/07 04:00:18;;;;;;;17.88;2.45;;;4.30;99.90;;;;;;4988747;28;20050;-74
2022/01/07 04:02:47;;;;;;;19.48;2.50;;;4.30;99.90;;;;;;4988279;28;20388;-74
2022/01/07 04:05:18;;;;;;;22.48;2.83;;;4.30;99.90;;;;;;4986952;28;20042;-74
2022/01/07 04:07:46;;;;;;;18.30;2.13;;;4.20;99.90;;;;;;4986911;28;20553;-74
2022/01/07 04:10:14;;;;;;;16.70;2.40;;;4.30;99.90;;;;;;4987071;28;20054;-73
2022/01/07 04:12:42;;;;;;;15.40;1.70;;;4.20;99.90;;;;;;4987321;28;20054;-74
2022/01/07 04:15:10;;;;;;;17.77;1.98;;;4.20;99.90;;;;;;4988533;28;20049;-74
2022/01/07 04:17:40;;;;;;;15.82;2.53;;;4.20;99.90;;;;;;4986898;28;20046;-74
2022/01/07 04:20:10;;;;;;;13.93;2.03;;;4.10;99.90;;;;;;4987899;28;20050;-74
2022/01/07 04:22:37;;;;;;;17.27;2.22;;;4.10;99.90;;;;;;4988014;28;20053;-74
2022/01/07 04:25:08;;;;;;;17.20;2.20;;;4.10;99.90;;;;;;4986593;28;20061;-74
2022/01/07 04:27:36;;;;;;;16.80;1.90;;;4.00;99.90;;;;;;4988137;28;20072;-74
2022/01/07 04:30:05;;;;;;;14.30;1.80;;;4.00;99.90;;;;;;4986541;28;20069;-73
2022/01/07 04:32:32;;;;;;;22.13;2.05;;;4.00;99.90;;;;;;4987337;28;20042;-74
2022/01/07 04:35:01;;;;;;;15.88;2.22;;;3.90;99.90;;;;;;4986414;28;20061;-74
2022/01/07 04:37:28;;;;;;;;;;;3.90;99.90;;;;;;4986409;28;20788;-75
2022/01/07 04:39:56;;;;;;;14.02;1.77;;;3.90;99.90;;;;;;4987625;28;19922;-74
2022/01/07 04:42:23;;;;;;;11.20;1.65;;;3.90;99.90;;;;;;4987989;28;20050;-74
2022/01/07 04:44:51;;;;;;;14.27;1.90;;;3.90;99.90;;;;;;4987634;28;20073;-74
2022/01/07 04:47:19;;;;;;;16.98;2.08;;;3.90;99.90;;;;;;4986286;28;20050;-74
2022/01/07 04:49:47;;;;;;;11.05;1.50;;;3.90;99.90;;;;;;4984697;28;20058;-75
2022/01/07 04:52:17;;;;;;;9.88;1.17;;;3.90;99.90;;;;;;4986680;28;20398;-74
2022/01/07 04:54:45;;;;;;;16.42;1.90;;;3.90;99.90;;;;;;4986254;28;20038;-74
2022/01/07 04:57:12;;;;;;;14.25;1.30;;;3.90;99.90;;;;;;4969382;28;20081;-74
2022/01/07 04:59:42;;;;;;;10.48;1.38;;;3.90;99.90;;;;;;4986275;28;20061;-74
2022/01/07 05:02:09;;;;;;;12.82;1.45;;;3.90;99.90;;;;;;4984654;28;20046;-73
2022/01/07 05:04:37;;;;;;;10.90;1.55;;;3.90;99.90;;;;;;4987008;28;20534;-74
2022/01/07 05:07:05;;;;;;;12.90;1.67;;;3.90;99.90;;;;;;4987351;28;20433;-74
2022/01/07 05:09:34;;;;;;;9.93;1.45;;;3.90;99.90;;;;;;4987673;28;20054;-75
2022/01/07 05:12:03;;;;;;;10.93;1.25;;;3.90;99.90;;;;;;5002391;28;20578;-74
2022/01/07 05:14:31;;;;;;;13.02;1.80;;;3.90;99.90;;;;;;5002078;28;20057;-74
2022/01/07 05:16:59;;;;;;;15.10;1.75;;;3.90;99.90;;;;;;4987123;28;20049;-74
2022/01/07 05:19:27;;;;;;;9.32;1.33;;;3.90;99.90;;;;;;4986071;28;20161;-74
2022/01/07 05:21:55;;;;;;;8.85;1.58;;;3.90;99.90;;;;;;4985330;28;20502;-74
2022/01/07 05:24:23;;;;;;;12.38;1.30;;;3.90;99.90;;;;;;4987050;28;20061;-74
2022/01/07 05:26:50;;;;;;;10.23;1.80;;;3.80;99.90;;;;;;4985662;28;20054;-73
2022/01/07 05:29:18;;;;;;;7.25;1.27;;;3.80;99.90;;;;;;4986729;28;20057;-72
2022/01/07 05:31:46;;;;;;;8.93;1.30;;;3.80;99.90;;;;;;4986064;28;20062;-72
2022/01/07 05:34:13;;;;;;;10.70;1.40;;;3.70;99.90;;;;;;4985755;28;20585;-73
2022/01/07 05:36:41;;;;;;;8.43;1.13;;;3.70;99.90;;;;;;4985557;28;20054;-74
2022/01/07 05:39:09;;;;;;;8.63;1.08;;;3.60;99.90;;;;;;4985774;28;20758;-73
2022/01/07 05:41:38;;;;;;;9.52;1.20;;;3.60;99.90;;;;;;4985765;28;20088;-72
2022/01/07 05:44:06;;;;;;;10.60;1.20;;;3.50;99.90;;;;;;4984806;28;20053;-73
2022/01/07 05:46:34;;;;;;;7.43;1.13;;;3.60;99.90;;;;;;4973072;28;20503;-73
2022/01/07 05:49:02;;;;;;;10.05;1.13;;;3.50;99.90;;;;;;4989788;28;20057;-72
2022/01/07 05:51:30;;;;;;;10.68;1.10;;;3.50;99.90;;;;;;4990420;28;20050;-72
2022/01/07 05:53:58;;;;;;;9.18;1.23;;;3.40;99.90;;;;;;4990555;28;20057;-73
2022/01/07 05:56:26;;;;;;;4.88;1.25;;;3.40;99.90;;;;;;4989119;28;20423;-73
2022/01/07 05:58:53;;;;;;;;;;;3.40;99.90;;;;;;4973382;28;20054;-73
2022/01/07 06:01:21;;;;;;;;;;;3.40;99.90;;;;;;4989573;28;19922;-72
2022/01/07 06:03:49;;;;;;;6.53;1.08;;;3.30;99.90;;;;;;4988711;28;19926;-73
2022/01/07 06:06:17;;;;;;;5.40;0.80;;;3.30;99.90;;;;;;4989654;28;20495;-73
2022/01/07 06:08:44;;;;;;;10.85;1.00;;;3.20;99.90;;;;;;4989251;28;20061;-73
2022/01/07 06:11:12;;;;;;;11.98;1.25;;;3.20;99.90;;;;;;4988945;28;20050;-74
2022/01/07 06:13:40;;;;;;;;;;;3.20;99.90;;;;;;4989310;28;20058;-73
2022/01/07 06:16:08;;;;;;;9.77;0.98;;;3.20;99.90;;;;;;4989036;28;20386;-73
2022/01/07 06:18:50;;;;;;;6.35;0.95;;;3.20;99.90;;;;;;4990131;28;20073;-75
2022/01/07 06:21:19;;;;;;;9.68;1.27;;;3.20;99.90;;;;;;4989785;28;20061;-73
2022/01/07 06:23:47;;;;;;;9.98;1.05;;;3.20;99.90;;;;;;4988456;28;20065;-72
2022/01/07 06:26:16;;;;;;;5.78;1.08;;;3.10;99.90;;;;;;4988587;28;20054;-72
2022/01/07 06:28:44;;;;;;;11.75;0.98;;;3.10;99.90;;;;;;4988476;28;20050;-73
2022/01/07 06:31:12;;;;;;;9.93;1.05;;;3.10;99.90;;;;;;4988360;28;20058;-73
2022/01/07 06:33:40;;;;;;;11.27;1.20;;;3.10;99.90;;;;;;4989784;28;20046;-73
2022/01/07 06:36:08;;;;;;;10.38;1.20;;;3.10;99.90;;;;;;4989692;28;20065;-73
2022/01/07 06:38:35;;;;;;;4.93;1.23;;;3.10;99.90;;;;;;4988298;28;20046;-72
2022/01/07 06:41:04;;;;;;;5.82;0.95;;;3.10;99.90;;;;;;4989716;28;20502;-73
2022/01/07 06:43:31;;;;;;;6.85;1.00;;;3.10;99.90;;;;;;4988482;28;20079;-72
2022/01/07 06:45:59;;;;;;;7.60;1.15;;;3.20;99.90;;;;;;4988320;28;20117;-72
2022/01/07 06:48:27;;;;;;;9.75;0.88;;;3.20;99.90;;;;;;4987728;28;20065;-72
2022/01/07 06:50:55;;;;;;;10.90;1.25;;;3.30;99.90;;;;;;4989540;28;20049;-72
2022/01/07 06:53:22;;;;;;;12.95;1.15;;;3.30;99.90;;;;;;4988418;28;20549;-73
2022/01/07 06:55:59;;;;;;;9.82;1.10;;;3.40;99.90;;;;;;4989573;28;20050;-72
2022/01/07 06:58:27;;;;;;;9.75;1.17;;;3.40;99.90;;;;;;4988137;28;20578;-72
2022/01/07 07:00:55;;;;;;;12.30;1.20;;;3.40;99.90;;;;;;4988207;28;20403;-72
2022/01/07 07:03:23;;;;;;;;;;;3.50;99.90;;;;;;4989711;28;20058;-72
2022/01/07 07:05:51;;;;;;;9.43;1.27;;;3.50;99.90;;;;;;4989610;28;19921;-73
2022/01/07 07:08:19;;;;;;;9.77;1.15;;;3.50;99.90;;;;;;4988605;28;20046;-72
2022/01/07 07:10:46;;;;;;;10.57;1.10;;;3.50;99.90;;;;;;4968357;28;20058;-72
2022/01/07 07:13:14;;;;;;;7.40;1.25;;;3.50;99.90;;;;;;4968698;28;20061;-73
2022/01/07 07:15:42;;;;;;;10.95;1.08;;;3.50;99.90;;;;;;4969456;28;20478;-73
2022/01/07 07:18:10;;;;;;;11.35;1.20;;;3.50;99.90;;;;;;4968302;28;20054;-72
2022/01/07 07:20:37;;;;;;;12.55;1.30;;;3.50;99.90;;;;;;4974206;28;20054;-73
2022/01/07 07:23:10;;;;;;;11.38;1.38;;;3.40;99.90;;;;;;4951987;28;20546;-73
2022/01/07 07:25:38;;;;;;;12.40;1.15;;;3.40;99.90;;;;;;5000416;28;20051;-73
2022/01/07 07:28:05;;;;;;;10.57;1.40;;;3.30;99.90;;;;;;4975537;28;20058;-73
2022/01/07 07:30:37;;;;;;;10.73;1.33;;;3.40;99.90;;;;;;4986166;28;20058;-73
2022/01/07 07:38:44;;;;;;;9.85;1.02;;;3.30;99.90;;;;;;4971138;28;20051;-73
2022/01/07 07:41:12;;;;;;;;;;;3.30;99.90;;;;;;4989203;28;20054;-73
2022/01/07 07:43:41;;;;;;;;;;;3.30;99.90;;;;;;4971669;28;19921;-73
2022/01/07 07:46:08;;;;;;;8.90;1.00;;;3.30;99.90;;;;;;4988243;28;19937;-73
2022/01/07 07:48:36;;;;;;;9.73;1.17;;;3.20;99.90;;;;;;4987563;28;20470;-73
2022/01/07 07:51:04;;;;;;;15.10;1.52;;;3.20;99.90;;;;;;4987716;28;20506;-73
2022/01/07 07:53:31;;;;;;;12.68;1.50;;;3.20;99.90;;;;;;4987168;28;20419;-75
2022/01/07 07:56:02;;;;;;;9.70;1.02;;;3.30;99.90;;;;;;4987653;28;20053;-74
2022/01/07 07:58:29;;;;;;;8.77;1.30;;;3.30;99.90;;;;;;4954034;28;20416;-74
2022/01/07 08:00:57;;;;;;;11.82;1.38;;;3.30;99.90;;;;;;4984756;28;20801;-74
2022/01/07 08:03:26;;;;;;;8.35;1.00;;;3.20;99.90;;;;;;4984560;28;20110;-74
2022/01/07 08:05:54;;;;;;;9.70;1.17;;;3.20;99.90;;;;;;5002712;28;20050;-73
2022/01/07 08:08:26;;;;;;;6.90;1.08;;;3.20;99.90;;;;;;4989085;28;20042;-74
2022/01/07 08:10:59;;;;;;;6.97;0.90;;;3.20;99.90;;;;;;4989804;28;20047;-75
2022/01/07 08:13:29;;;;;;;9.07;1.35;;;3.20;99.90;;;;;;4993172;28;20061;-75
2022/01/07 08:16:04;;;;;;;9.57;0.98;;;3.10;99.90;;;;;;5002878;28;20042;-75
2022/01/07 08:18:38;;;;;;;7.97;1.00;;;3.10;99.90;;;;;;4985591;28;20049;-75
2022/01/07 08:21:10;;;;;;;9.63;1.20;;;3.10;99.90;;;;;;5000772;28;20373;-74
2022/01/07 08:23:42;;;;;;;12.27;1.30;;;3.10;99.90;;;;;;4998794;28;20049;-73
2022/01/07 08:26:11;;;;;;;9.57;1.10;;;3.00;99.90;;;;;;5002377;28;20060;-74
2022/01/07 08:28:45;;;;;;;8.18;1.35;;;3.00;99.90;;;;;;4985671;28;20176;-73
2022/01/07 08:31:26;;;;;;;6.57;1.20;;;2.90;99.90;;;;;;4997924;28;20050;-73
2022/01/07 08:36:40;;;;;;;10.32;1.55;;;3.00;99.90;;;;;;4989905;28;20047;-73
2022/01/07 08:39:10;;;;;;;8.05;1.13;;;3.00;99.90;;;;;;5005500;28;20450;-73
2022/01/07 08:41:38;;;;;;;11.30;0.80;;;3.00;99.90;;;;;;5005878;28;20844;-73
2022/01/07 08:44:07;;;;;;;12.35;1.35;;;3.00;99.90;;;;;;5005506;28;20057;-73
2022/01/07 08:46:35;;;;;;;5.90;0.95;;;3.20;99.90;;;;;;5004834;28;20057;-73
2022/01/07 08:49:04;;;;;;;9.20;1.17;;;3.20;99.90;;;;;;5004873;28;20057;-73
2022/01/07 08:51:32;;;;;;;6.95;1.00;;;3.30;99.90;;;;;;5004577;28;20069;-73
2022/01/07 08:54:00;;;;;;;5.88;1.23;;;3.40;99.90;;;;;;5006203;28;20073;-73
2022/01/07 08:56:28;;;;;;;7.70;1.30;;;3.50;99.90;;;;;;5006184;28;20050;-74
2022/01/07 08:58:57;;;;;;;9.77;1.50;;;3.60;99.90;;;;;;4991106;28;20050;-73
2022/01/07 09:01:28;;;;;;;12.95;1.40;;;3.60;99.90;;;;;;4990563;28;20046;-74
2022/01/07 09:03:57;;;;;;;10.93;1.35;;;3.70;99.90;;;;;;4996680;28;20049;-73
2022/01/07 09:06:25;;;;;;;9.05;1.40;;;3.80;99.90;;;;;;4999818;28;20045;-74
2022/01/07 09:08:53;;;;;;;7.75;1.33;;;3.80;99.90;;;;;;4997961;28;20046;-75
2022/01/07 09:11:22;;;;;;;10.07;1.33;;;3.80;99.90;;;;;;4982843;28;20521;-73
2022/01/07 09:13:52;;;;;;;13.65;1.58;;;3.90;99.90;;;;;;4986226;28;20050;-72
2022/01/07 09:16:21;;;;;;;;;;;3.90;99.90;;;;;;5001765;28;20873;-73
2022/01/07 09:18:49;;;;;;;12.45;1.30;;;3.80;99.90;;;;;;4999114;28;19936;-74
2022/01/07 09:21:18;;;;;;;9.45;1.27;;;3.90;99.90;;;;;;5005370;28;20076;-78
2022/01/07 09:23:46;;;;;;;11.45;1.60;;;3.90;99.90;;;;;;4986705;28;20157;-73
2022/01/07 09:26:14;;;;;;;7.20;1.50;;;3.90;99.90;;;;;;4984123;28;20050;-74
2022/01/07 09:28:42;;;;;;;;;;;3.90;99.90;;;;;;4984838;28;20046;-74
2022/01/07 09:31:11;;;;;;;12.45;1.40;;;4.00;99.90;;;;;;4986294;28;20378;-74
2022/01/07 09:33:39;;;;;;;13.68;1.48;;;4.10;99.90;;;;;;4985606;28;20414;-73
2022/01/07 09:36:26;;;;;;;8.90;1.30;;;4.20;99.90;;;;;;5003028;28;20054;-73
2022/01/07 09:38:54;;;;;;;6.15;1.08;;;4.30;99.90;;;;;;5001420;28;20500;-74
2022/01/07 09:41:22;;;;;;;8.80;1.05;;;4.40;99.90;;;;;;4984666;28;20065;-73
2022/01/07 09:43:50;;;;;;;9.07;1.17;;;4.50;99.90;;;;;;4986022;28;20049;-72
2022/01/07 09:46:18;;;;;;;;;;;4.50;99.90;;;;;;4987455;28;20054;-72
2022/01/07 09:48:46;;;;;;;7.25;1.13;;;4.50;99.90;;;;;;5004270;28;19925;-72
2022/01/07 09:51:15;;;;;;;7.53;1.20;;;4.40;99.90;;;;;;5004540;28;20060;-72
2022/01/07 09:53:43;;;;;;;7.50;1.13;;;4.40;99.90;;;;;;5003476;28;20061;-73
2022/01/07 09:56:12;;;;;;;8.63;1.10;;;4.30;99.90;;;;;;5003102;28;20057;-73
2022/01/07 09:58:40;;;;;;;9.00;1.05;;;4.30;99.90;;;;;;4984777;28;20061;-73
2022/01/07 10:01:16;;;;;;;;;;;4.30;99.90;;;;;;4982355;28;20042;-73
2022/01/07 10:03:45;;;;;;;4.80;0.70;;;4.30;99.90;;;;;;5016146;28;19921;-76
2022/01/07 10:06:27;;;;;;;10.60;0.93;;;4.30;99.90;;;;;;4977089;28;20049;-75
2022/01/07 10:09:03;;;;;;;7.85;0.80;;;4.30;99.90;;;;;;5004209;28;20057;-75
2022/01/07 10:11:31;;;;;;;7.20;1.00;;;4.30;99.90;;;;;;4987254;28;20051;-75
2022/01/07 10:14:19;;;;;;;7.28;1.10;;;4.50;99.90;;;;;;5004393;28;20422;-74
2022/01/07 10:16:57;;;;;;;6.68;0.80;;;4.70;99.90;;;;;;5003615;28;20076;-73
2022/01/07 10:19:35;;;;;;;5.00;1.23;;;4.90;99.90;;;;;;4999443;28;20487;-73
2022/01/07 10:22:15;;;;;;;6.65;1.90;;;5.40;99.90;;;;;;5004518;28;20061;-74
2022/01/07 10:24:58;;;;;;;8.00;3.05;;;6.00;99.90;;;;;;5003470;28;20490;-73
2022/01/07 10:27:35;;;;;;;8.75;2.35;;;6.70;99.90;;;;;;5001733;28;20053;-72
2022/01/07 10:30:18;;;;;;;7.65;1.58;;;7.20;99.90;;;;;;4992626;28;20046;-73
2022/01/07 10:32:47;;;;;;;8.40;1.67;;;7.70;99.90;;;;;;5006923;28;20045;-72
2022/01/07 10:35:19;;;;;;;7.70;1.13;;;8.10;99.90;;;;;;5008149;28;20057;-74
2022/01/07 10:37:58;;;;;;;5.40;0.98;;;8.40;99.90;;;;;;5007660;28;20138;-74
2022/01/07 10:40:26;;;;;;;11.35;1.60;;;8.70;99.90;;;;;;4990193;28;20061;-73
2022/01/07 10:43:18;;;;;;;4.68;1.05;;;8.80;99.90;;;;;;4988305;28;20073;-73
2022/01/07 10:45:53;;;;;;;6.22;1.30;;;8.90;99.90;;;;;;4987868;28;20061;-72
2022/01/07 10:48:34;;;;;;;7.72;1.77;;;8.90;99.90;;;;;;4989407;28;20687;-73
2022/01/07 10:51:07;;;;;;;11.65;2.10;;;9.00;99.90;;;;;;4987711;28;20499;-73
2022/01/07 10:53:35;;;;;;;9.85;2.10;;;9.30;99.90;;;;;;4988163;28;20051;-73
2022/01/07 10:56:12;;;;;;;10.23;2.15;;;9.70;99.90;;;;;;4987921;28;20055;-73
2022/01/07 10:58:43;;;;;;;7.97;2.20;;;10.00;99.90;;;;;;4990707;28;20065;-73
2022/01/07 11:01:31;;;;;;;9.65;2.17;;;10.20;99.90;;;;;;4989984;28;20503;-74
2022/01/07 11:04:02;;;;;;;7.82;2.05;;;10.40;99.90;;;;;;5006433;28;20680;-74
2022/01/07 11:06:30;;;;;;;8.25;2.25;;;10.40;99.90;;;;;;5001316;28;20050;-73
2022/01/07 11:08:59;;;;;;;;;;;10.50;99.90;;;;;;5004107;28;20085;-74
2022/01/07 11:11:29;;;;;;;10.35;1.90;;;10.60;99.90;;;;;;4989671;28;19979;-73
2022/01/07 11:14:06;;;;;;;5.18;1.33;;;10.80;99.90;;;;;;4987092;28;20059;-74
2022/01/07 11:16:38;;;;;;;7.65;2.10;;;10.90;99.90;;;;;;4988989;28;20058;-74
2022/01/07 11:19:08;;;;;;;10.13;2.17;;;11.00;99.90;;;;;;4996535;28;20038;-74
2022/01/07 11:21:39;;;;;;;7.75;2.10;;;11.10;99.90;;;;;;5001544;28;20049;-74
2022/01/07 11:24:36;;;;;;;7.95;2.55;;;11.20;99.90;;;;;;4992847;28;20049;-73
2022/01/07 11:27:16;;;;;;;8.95;2.47;;;11.30;99.90;;;;;;4986926;28;20054;-75
2022/01/07 11:30:02;;;;;;;7.55;1.80;;;11.40;99.90;;;;;;4986727;28;20581;-73
2022/01/07 11:32:41;;;;;;;7.68;1.60;;;11.70;99.90;;;;;;5002628;28;20061;-74
2022/01/07 11:35:23;;;;;;;10.63;2.17;;;11.60;99.10;;;;;;5005261;28;20118;-74
2022/01/07 11:37:57;;;;;;;6.78;1.92;;;11.90;99.90;;;;;;5007369;28;20046;-74
2022/01/07 11:40:28;;;;;;;6.53;1.50;;;12.00;99.80;;;;;;5007768;28;20049;-73
2022/01/07 11:43:00;;;;;;;8.55;1.50;;;11.80;99.00;;;;;;5006679;28;20050;-74
2022/01/07 11:45:31;;;;;;;6.03;1.60;;;11.90;98.60;;;;;;5006790;28;20054;-75
2022/01/07 11:48:24;;;;;;;10.50;1.63;;;11.80;97.80;;;;;;4999143;28;20080;-75
2022/01/07 11:50:55;;;;;;;7.03;1.52;;;11.90;97.60;;;;;;5005685;28;20766;-75
2022/01/07 11:53:24;;;;;;;7.63;1.27;;;11.90;97.90;;;;;;5006537;28;20168;-75
2022/01/07 11:55:59;;;;;;;7.20;1.52;;;11.90;97.70;;;;;;5001834;28;20042;-74
2022/01/07 11:58:39;;;;;;;9.95;1.90;;;11.90;97.00;;;;;;4994713;28;20068;-75
2022/01/07 12:01:22;;;;;;;13.10;1.85;;;12.00;97.20;;;;;;4984140;28;20813;-75
2022/01/07 12:03:53;;;;;;;9.43;1.90;;;11.90;97.50;;;;;;4997981;28;20109;-76
2022/01/07 12:06:27;;;;;;;6.28;1.88;;;12.00;97.50;;;;;;4990309;28;20051;-75
2022/01/07 12:09:16;;;;;;;8.35;2.00;;;12.10;97.20;;;;;;4970523;28;20057;-75
2022/01/07 12:11:51;;;;;;;9.00;1.55;;;12.20;97.50;;;;;;5003784;28;20054;-75
2022/01/07 12:14:23;;;;;;;5.18;1.38;;;12.30;97.20;;;;;;5006598;28;20053;-75
2022/01/07 12:16:56;;;;;;;8.38;1.35;;;12.40;96.80;;;;;;5004581;28;20049;-74
2022/01/07 12:19:42;;;;;;;6.22;1.85;;;12.40;96.00;;;;;;4998215;28;20667;-75
2022/01/07 12:22:16;;;;;;;7.65;1.70;;;12.40;95.50;;;;;;4999806;28;20689;-74
2022/01/07 12:25:00;;;;;;;7.55;1.50;;;12.20;96.40;;;;;;5006619;28;20061;-74
2022/01/07 12:27:32;;;;;;;9.77;1.38;;;12.00;96.20;;;;;;4967256;28;20060;-75
2022/01/07 12:30:13;;;;;;;10.95;1.52;;;11.80;95.30;;;;;;4996395;28;20053;-75
2022/01/07 12:32:45;;;;;;;8.07;1.38;;;11.90;96.40;;;;;;5006613;28;20076;-75
2022/01/07 12:35:15;;;;;;;8.73;1.70;;;12.00;96.10;;;;;;5005682;28;20050;-74
2022/01/07 12:37:47;;;;;;;10.38;1.90;;;12.00;95.30;;;;;;5023048;28;20049;-74
2022/01/07 12:40:24;;;;;;;8.80;1.67;;;11.70;95.90;;;;;;5007108;28;20042;-76
2022/01/07 12:43:05;;;;;;;8.23;1.52;;;11.30;96.30;;;;;;5003728;28;20049;-75
2022/01/07 12:45:39;;;;;;;8.98;1.55;;;11.10;96.50;;;;;;5005455;28;20487;-75
2022/01/07 12:48:18;;;;;;;9.60;1.45;;;11.00;97.30;;;;;;5021356;28;20061;-74
2022/01/07 12:50:46;;;;;;;6.35;1.50;;;10.80;97.40;;;;;;5005122;28;20052;-74
2022/01/07 12:53:13;;;;;;;8.48;1.50;;;10.60;97.60;;;;;;5004360;28;20510;-74
2022/01/07 12:55:41;;;;;;;;;;;10.40;98.10;;;;;;5006835;28;20057;-76
2022/01/07 12:58:10;;;;;;;6.28;1.60;;;9.80;98.40;;;;;;4995727;28;19948;-76
2022/01/07 13:00:38;;;;;;;9.57;1.35;;;9.30;99.20;;;;;;4998437;28;20050;-76
2022/01/07 13:03:08;;;;;;;12.15;1.80;;;8.90;99.90;;;;;;5005007;28;20050;-76
2022/01/07 13:05:40;;;;;;;8.80;1.48;;;8.70;99.90;;;;;;4989016;28;20054;-75
2022/01/07 13:08:15;;;;;;;7.70;1.45;;;8.40;99.90;;;;;;4986850;28;20054;-75
2022/01/07 13:10:46;;;;;;;10.88;1.50;;;8.20;99.90;;;;;;4986835;28;20434;-73
2022/01/07 13:13:24;;;;;;;5.50;1.20;;;8.00;99.90;;;;;;4982631;28;20061;-74
2022/01/07 13:15:56;;;;;;;10.95;1.80;;;7.70;99.90;;;;;;4964146;28;20046;-74
2022/01/07 13:18:42;;;;;;;12.05;1.70;;;7.50;99.90;;;;;;4971527;28;20484;-74